Time;durP1;ratioP1;P1;durP2;ratioP2;P2;SDS_P1;SDS_P2;PMS_P1;PMS_P2;Temp;Humidity;BMP_temperature;BMP_pressure;BME280_temperature;BME280_humidity;BME280_pressure;Samples;Min_cycle;Max_cycle;Signal;HPM_P1;HPM_P2
2023/10/16 00:01:17;;;;;;;3.85;1.77;;;;;;;6.82;100.00;99784.06;5031582;28;20120;-80
2023/10/16 00:03:42;;;;;;;4.20;2.28;;;;;;;6.83;100.00;99783.22;5031883;28;20480;-79
2023/10/16 00:06:12;;;;;;;10.50;2.20;;;;;;;6.72;100.00;99765.38;5031842;28;20120;-80
2023/10/16 00:08:47;;;;;;;6.63;2.35;;;;;;;6.95;100.00;99808.72;5031780;28;20060;-80
2023/10/16 00:11:18;;;;;;;3.22;1.70;;;;;;;6.76;100.00;99772.16;5031575;28;20030;-80
2023/10/16 00:13:47;;;;;;;3.23;1.57;;;;;;;6.75;100.00;99788.59;5031584;28;20018;-80
2023/10/16 00:16:15;;;;;;;4.03;2.35;;;;;;;6.79;100.00;99800.56;5031695;28;20567;-80
2023/10/16 00:18:41;;;;;;;2.25;1.30;;;;;;;6.82;100.00;99802.19;5031360;28;20025;-80
2023/10/16 00:21:06;;;;;;;4.90;1.75;;;;;;;6.65;100.00;99758.69;5031686;28;20448;-80
2023/10/16 00:23:39;;;;;;;3.70;1.90;;;;;;;6.84;100.00;99787.50;5031721;28;20030;-80
2023/10/16 00:26:06;;;;;;;2.28;1.70;;;;;;;6.82;100.00;99797.03;5031279;28;20067;-80
2023/10/16 00:28:32;;;;;;;5.68;1.60;;;;;;;6.86;100.00;99809.84;5031266;28;20422;-80
2023/10/16 00:30:58;;;;;;;4.03;1.58;;;;;;;6.86;100.00;99806.41;5031673;28;20029;-80
2023/10/16 00:33:23;;;;;;;3.22;2.00;;;;;;;6.84;100.00;99808.19;5013410;28;20103;-80
2023/10/16 00:35:48;;;;;;;3.90;2.05;;;;;;;6.69;100.00;99775.81;5031807;28;20026;-80
2023/10/16 00:38:14;;;;;;;3.22;1.80;;;;;;;6.79;100.00;99782.44;5031393;28;20033;-80
2023/10/16 00:40:51;;;;;;;2.35;1.60;;;;;;;6.85;100.00;99812.47;5034728;28;20249;-80
2023/10/16 00:43:21;;;;;;;7.15;1.98;;;;;;;6.80;100.00;99798.81;5035313;28;20026;-80
2023/10/16 00:45:59;;;;;;;3.97;1.85;;;;;;;6.80;100.00;99791.06;5035170;28;20022;-80
2023/10/16 00:48:24;;;;;;;4.35;1.98;;;;;;;6.53;100.00;99735.75;5034850;28;20064;-80
2023/10/16 00:50:50;;;;;;;4.63;1.88;;;;;;;6.96;100.00;99806.09;5035088;28;20033;-80
2023/10/16 00:53:20;;;;;;;5.15;1.60;;;;;;;6.89;100.00;99790.78;5034993;28;20029;-80
2023/10/16 00:55:55;;;;;;;7.10;2.70;;;;;;;6.71;100.00;99785.25;5035154;28;20486;-79
2023/10/16 00:58:21;;;;;;;4.85;1.70;;;;;;;6.88;100.00;99813.25;5034766;28;20104;-80
2023/10/16 01:00:47;;;;;;;3.97;1.60;;;;;;;6.86;100.00;99812.41;5034710;28;20478;-80
2023/10/16 01:03:14;;;;;;;2.95;1.50;;;;;;;6.55;100.00;99755.53;5034752;28;20021;-79
2023/10/16 01:05:42;;;;;;;6.18;1.55;;;;;;;6.66;100.00;99788.88;5034338;28;20036;-79
2023/10/16 01:08:09;;;;;;;3.53;1.60;;;;;;;6.84;100.00;99827.16;5034518;28;20022;-79
2023/10/16 01:10:37;;;;;;;4.05;2.03;;;;;;;6.62;100.00;99784.66;5034480;28;20040;-79
2023/10/16 01:13:08;;;;;;;2.35;1.60;;;;;;;6.85;100.00;99825.41;5034556;28;20022;-80
2023/10/16 01:15:33;;;;;;;3.85;1.70;;;;;;;6.85;100.00;99828.00;5034303;28;20036;-79
2023/10/16 01:17:59;;;;;;;5.22;2.10;;;;;;;6.64;100.00;99782.88;5034284;28;20026;-80
2023/10/16 01:20:24;;;;;;;3.45;1.55;;;;;;;6.60;100.00;99800.22;5034047;28;20036;-79
2023/10/16 01:22:52;;;;;;;2.67;1.40;;;;;;;6.44;100.00;99779.09;5034510;28;20033;-79
2023/10/16 01:25:18;;;;;;;5.93;2.10;;;;;;;6.60;100.00;99823.50;5034564;28;20076;-79
2023/10/16 01:27:43;;;;;;;5.28;2.00;;;;;;;6.44;100.00;99812.72;5033786;28;20049;-79
2023/10/16 01:30:09;;;;;;;4.80;2.03;;;;;;;6.55;100.00;99827.97;5034187;28;20021;-80
2023/10/16 01:32:35;;;;;;;6.10;2.10;;;;;;;6.22;100.00;99784.00;5033785;28;20108;-79
2023/10/16 01:35:01;;;;;;;3.75;1.85;;;;;;;6.17;100.00;99795.38;5033934;28;20109;-79
2023/10/16 01:37:27;;;;;;;5.53;1.95;;;;;;;6.31;100.00;99821.72;5033919;28;20029;-79
2023/10/16 01:40:11;;;;;;;4.07;2.00;;;;;;;6.18;100.00;99808.25;5034196;28;20029;-79
2023/10/16 01:42:36;;;;;;;6.20;1.60;;;;;;;5.82;100.00;99765.22;5033849;28;20021;-79
2023/10/16 01:45:04;;;;;;;6.05;1.83;;;;;;;5.99;100.00;99807.88;5033890;28;20108;-79
2023/10/16 01:47:33;;;;;;;6.18;1.80;;;;;;;6.01;100.00;99818.19;5033483;28;20431;-79
2023/10/16 01:49:58;;;;;;;5.47;1.65;;;;;;;5.93;100.00;99814.94;5033493;28;20053;-79
2023/10/16 01:52:25;;;;;;;5.68;1.83;;;;;;;5.92;100.00;99826.19;5032839;28;20072;-79
2023/10/16 01:54:52;;;;;;;6.07;1.60;;;;;;;5.89;100.00;99815.88;5033893;28;20041;-79
2023/10/16 01:57:17;;;;;;;5.22;1.85;;;;;;;5.59;100.00;99782.13;5033587;28;20032;-79
2023/10/16 01:59:47;;;;;;;6.85;1.80;;;;;;;5.62;100.00;99796.72;5033289;28;20025;-79
2023/10/16 02:02:13;;;;;;;4.15;1.95;;;;;;;5.65;100.00;99814.75;5015516;28;20026;-79
2023/10/16 02:04:40;;;;;;;4.13;1.90;;;;;;;5.83;100.00;99839.28;5033491;28;20079;-79
2023/10/16 02:07:09;;;;;;;3.50;1.60;;;;;;;5.85;100.00;99838.34;5033603;28;20354;-79
2023/10/16 02:09:38;;;;;;;2.65;1.45;;;;;;;5.82;100.00;99838.44;5033211;28;20385;-79
2023/10/16 02:12:14;;;;;;;4.65;2.25;;;;;;;5.54;100.00;99776.22;5033485;28;20030;-79
2023/10/16 02:14:40;;;;;;;8.30;2.00;;;;;;;5.82;100.00;99820.34;5033045;28;20041;-79
2023/10/16 02:17:14;;;;;;;4.18;2.03;;;;;;;6.01;100.00;99851.78;5033314;28;20032;-79
2023/10/16 02:19:45;;;;;;;6.93;1.80;;;;;;;5.99;100.00;99841.50;5033045;28;20041;-79
2023/10/16 02:22:11;;;;;;;5.85;1.88;;;;;;;6.04;100.00;99843.97;5033174;28;20029;-79
2023/10/16 02:24:37;;;;;;;4.78;1.70;;;;;;;6.12;100.00;99842.03;5032758;28;20033;-79
2023/10/16 02:27:03;;;;;;;8.65;2.10;;;;;;;6.18;100.00;99836.69;5032743;28;20503;-79
2023/10/16 02:29:31;;;;;;;5.13;2.22;;;;;;;6.10;100.00;99820.53;5032969;28;20029;-79
2023/10/16 02:31:58;;;;;;;4.20;1.95;;;;;;;6.32;100.00;99851.88;5033094;28;20112;-79
2023/10/16 02:34:23;;;;;;;5.43;1.88;;;;;;;6.37;100.00;99857.78;5032955;28;20104;-79
2023/10/16 02:36:54;;;;;;;3.83;2.05;;;;;;;6.04;100.00;99794.00;5032493;28;20242;-79
2023/10/16 02:39:38;;;;;;;3.97;1.98;;;;;;;6.23;100.00;99821.91;5032798;28;20029;-79
2023/10/16 02:42:12;;;;;;;5.22;2.10;;;;;;;6.32;100.00;99848.41;5032986;28;20059;-79
2023/10/16 02:44:45;;;;;;;3.58;2.10;;;;;;;6.32;100.00;99846.72;5032517;28;20017;-79
2023/10/16 02:47:13;;;;;;;3.65;2.08;;;;;;;6.18;100.00;99817.75;5032743;28;20097;-79
2023/10/16 02:49:47;;;;;;;6.03;2.60;;;;;;;6.34;100.00;99850.09;5032321;28;20017;-79
2023/10/16 02:52:14;;;;;;;4.78;2.20;;;;;;;6.11;100.00;99831.72;5032517;28;20060;-79
2023/10/16 02:54:40;;;;;;;7.68;2.83;;;;;;;6.04;100.00;99825.03;5032502;28;20469;-79
2023/10/16 02:57:05;;;;;;;3.53;1.88;;;;;;;5.87;100.00;99790.06;5032517;28;20113;-79
2023/10/16 02:59:31;;;;;;;6.13;2.20;;;;;;;5.85;100.00;99796.16;5014605;28;20024;-80
2023/10/16 03:01:57;;;;;;;7.22;2.08;;;;;;;6.30;100.00;99869.16;5032415;28;20034;-79
2023/10/16 03:04:23;;;;;;;4.15;1.70;;;;;;;6.10;100.00;99832.63;5032387;28;20025;-80
2023/10/16 03:06:53;;;;;;;5.53;1.70;;;;;;;6.25;100.00;99866.69;5032051;28;20560;-80
2023/10/16 03:09:28;;;;;;;4.65;1.83;;;;;;;6.28;100.00;99863.19;5032495;28;20113;-80
2023/10/16 03:12:04;;;;;;;5.63;2.28;;;;;;;6.18;100.00;99836.69;5014488;28;20033;-80
2023/10/16 03:14:37;;;;;;;2.25;1.70;;;;;;;6.11;100.00;99824.84;5032071;28;20086;-81
2023/10/16 03:17:09;;;;;;;3.47;1.50;;;;;;;6.27;100.00;99845.09;5032093;28;20034;-80
2023/10/16 03:19:35;;;;;;;5.70;2.00;;;;;;;6.24;100.00;99843.47;5032118;28;20071;-80
2023/10/16 03:22:04;;;;;;;4.65;2.10;;;;;;;6.21;100.00;99851.31;5032379;28;20529;-80
2023/10/16 03:24:29;;;;;;;6.18;2.50;;;;;;;6.21;100.00;99852.16;5032389;28;20025;-80
2023/10/16 03:26:57;;;;;;;6.15;2.10;;;;;;;6.19;100.00;99841.00;5031802;28;20049;-80
2023/10/16 03:29:23;;;;;;;3.53;2.05;;;;;;;6.36;100.00;99870.72;5031808;28;20104;-80
2023/10/16 03:31:48;;;;;;;4.85;2.17;;;;;;;6.21;100.00;99849.56;5032088;28;20504;-80
2023/10/16 03:34:14;;;;;;;6.38;2.30;;;;;;;6.38;100.00;99882.75;5014353;28;20120;-80
2023/10/16 03:36:41;;;;;;;4.40;2.20;;;;;;;6.15;100.00;99848.84;5031600;28;20485;-80
2023/10/16 03:39:10;;;;;;;4.47;2.35;;;;;;;6.38;100.00;99881.91;5031927;28;20087;-80
2023/10/16 03:41:39;;;;;;;6.47;2.22;;;;;;;6.30;100.00;99881.25;5031796;28;20055;-80
2023/10/16 03:44:11;;;;;;;6.93;2.25;;;;;;;6.32;100.00;99884.63;5031843;28;20056;-80
2023/10/16 03:46:38;;;;;;;3.00;2.40;;;;;;;6.29;100.00;99887.31;5031376;28;20600;-81
2023/10/16 03:49:03;;;;;;;3.90;1.88;;;;;;;6.16;100.00;99879.88;5031917;28;20040;-80
2023/10/16 03:51:28;;;;;;;5.75;1.98;;;;;;;6.20;100.00;99894.44;5031936;28;20030;-81
2023/10/16 03:53:56;;;;;;;2.92;1.73;;;;;;;5.95;100.00;99847.63;5031650;28;20082;-81
2023/10/16 03:56:22;;;;;;;7.45;2.65;;;;;;;5.78;100.00;99825.66;5031713;28;20029;-79
2023/10/16 03:58:47;;;;;;;7.53;2.38;;;;;;;5.94;100.00;99861.47;5031320;28;20033;-80
2023/10/16 04:01:20;;;;;;;4.75;2.30;;;;;;;6.10;100.00;99885.19;5031889;28;20036;-80
2023/10/16 04:03:56;;;;;;;2.80;1.90;;;;;;;6.06;100.00;99870.63;5031640;28;20079;-80
2023/10/16 04:06:22;;;;;;;3.38;1.95;;;;;;;6.14;100.00;99889.38;5031890;28;20025;-80
2023/10/16 04:08:49;;;;;;;6.13;2.90;;;;;;;6.05;100.00;99876.69;5031413;28;20053;-80
2023/10/16 04:11:18;;;;;;;5.63;2.28;;;;;;;5.96;100.00;99862.25;5031617;28;20064;-80
2023/10/16 04:13:52;;;;;;;4.35;1.92;;;;;;;5.86;100.00;99853.00;5032210;28;20029;-80
2023/10/16 04:16:37;;;;;;;4.20;2.20;;;;;;;5.69;100.00;99834.47;5035643;28;20034;-80
2023/10/16 04:21:50;;;;;;;5.97;2.60;;;;;;;5.58;100.00;99845.03;4974081;28;20046;-80
2023/10/16 04:26:57;;;;;;;7.57;2.30;;;;;;;5.73;100.00;99869.66;4973678;28;20137;-80
2023/10/16 04:29:25;;;;;;;5.57;2.55;;;;;;;5.61;100.00;99846.72;4974105;28;20030;-80
2023/10/16 04:34:32;;;;;;;4.75;2.40;;;;;;;5.83;100.00;99857.38;4974142;28;20035;-80
2023/10/16 05:06:14;;;;;;;;;;;;;;;6.23;100.00;99903.81;5015409;28;20034;-80
2023/10/16 05:09:53;;;;;;;6.05;3.15;;;;;;;6.04;100.00;99871.56;5014643;28;19914;-80
2023/10/16 05:15:20;;;;;;;8.75;3.45;;;;;;;5.90;100.00;99849.47;5014664;28;20037;-80
2023/10/16 05:19:46;;;;;;;4.10;3.35;;;;;;;5.95;100.00;99859.72;5014336;28;20421;-80
2023/10/16 06:16:48;;;;;;;4.95;3.08;;;;;;;5.59;100.00;99924.25;5013545;28;20048;-81
2023/10/16 06:19:15;;;;;;;5.93;3.53;;;;;;;5.31;100.00;99889.56;5013330;28;20493;-81
2023/10/16 06:21:57;;;;;;;9.23;3.97;;;;;;;5.47;100.00;99927.09;5013450;28;20040;-80
2023/10/16 06:24:25;;;;;;;9.32;3.47;;;;;;;5.16;100.00;99886.41;5013275;28;20444;-81
2023/10/16 06:26:55;;;;;;;7.03;4.03;;;;;;;5.18;100.00;99892.41;5020416;28;20510;-81
2023/10/16 06:29:24;;;;;;;4.72;3.45;;;;;;;5.18;100.00;99896.69;5033192;28;20033;-80
2023/10/16 06:31:53;;;;;;;5.72;3.35;;;;;;;5.22;100.00;99919.88;5032833;28;20107;-80
2023/10/16 06:34:18;;;;;;;7.60;3.38;;;;;;;5.09;100.00;99897.75;5032972;28;20026;-81
2023/10/16 06:36:44;;;;;;;8.75;3.10;;;;;;;5.07;100.00;99899.53;5032158;28;20476;-80
2023/10/16 06:39:22;;;;;;;7.32;3.83;;;;;;;5.36;100.00;99942.84;5014811;28;20025;-81
2023/10/16 06:41:53;;;;;;;7.72;3.88;;;;;;;5.32;100.00;99925.69;5024932;28;20025;-81
2023/10/16 06:44:21;;;;;;;7.68;3.72;;;;;;;5.38;100.00;99928.13;5032739;28;20032;-81
2023/10/16 06:46:47;;;;;;;7.97;3.03;;;;;;;5.44;100.00;99928.03;5014896;28;20029;-80
2023/10/16 06:49:12;;;;;;;5.95;2.90;;;;;;;5.50;100.00;99921.88;5032622;28;20032;-81
2023/10/16 06:51:43;;;;;;;10.20;3.72;;;;;;;5.62;100.00;99956.94;5032704;28;20480;-81
2023/10/16 06:54:09;;;;;;;6.97;3.40;;;;;;;5.36;100.00;99898.91;5032491;28;20381;-80
2023/10/16 06:56:36;;;;;;;7.28;3.75;;;;;;;5.71;100.00;99928.28;5014762;28;20025;-81
2023/10/16 06:59:02;;;;;;;8.20;3.67;;;;;;;5.56;100.00;99906.22;5032331;28;20071;-81
2023/10/16 07:01:28;;;;;;;9.32;3.47;;;;;;;5.56;100.00;99910.53;5032463;28;20030;-81
2023/10/16 07:03:56;;;;;;;8.25;3.90;;;;;;;5.81;100.00;99957.38;5032283;28;20022;-81
2023/10/16 07:06:27;;;;;;;10.77;3.70;;;;;;;5.62;100.00;99902.66;5032306;28;20060;-81
2023/10/16 07:08:55;;;;;;;8.15;3.58;;;;;;;5.73;100.00;99908.41;5032293;28;20025;-81
2023/10/16 07:11:21;;;;;;;6.18;3.08;;;;;;;5.98;100.00;99948.41;5014645;28;20431;-81
2023/10/16 07:13:47;;;;;;;7.85;3.88;;;;;;;6.08;100.00;99967.13;5031989;28;20347;-81
2023/10/16 07:16:15;;;;;;;6.03;3.95;;;;;;;6.04;100.00;99964.66;5032199;28;20087;-81
2023/10/16 07:18:42;;;;;;;5.93;3.25;;;;;;;6.01;100.00;99957.81;5032067;28;20447;-81
2023/10/16 07:21:08;;;;;;;9.15;3.45;;;;;;;5.79;100.00;99930.72;5032408;28;20082;-81
2023/10/16 07:23:35;;;;;;;5.40;3.47;;;;;;;6.10;100.00;99967.94;5032316;28;20025;-81
2023/10/16 07:26:05;;;;;;;9.15;3.78;;;;;;;5.81;100.00;99914.28;5031751;28;20115;-81
2023/10/16 07:28:31;;;;;;;7.35;3.08;;;;;;;6.06;100.00;99939.59;5031929;28;20448;-81
2023/10/16 07:30:58;;;;;;;6.00;2.95;;;;;;;6.25;100.00;99966.72;5031773;28;20079;-81
2023/10/16 07:33:24;;;;;;;6.13;2.90;;;;;;;6.16;100.00;99961.78;5030600;28;20030;-81
2023/10/16 07:35:51;;;;;;;6.95;3.65;;;;;;;6.05;100.00;99930.13;5022545;28;20488;-81
2023/10/16 07:38:25;;;;;;;5.30;3.10;;;;;;;6.24;100.00;99950.38;5019528;28;20413;-81
2023/10/16 07:40:56;;;;;;;7.45;3.47;;;;;;;6.34;100.00;99969.09;4999079;28;20026;-80
2023/10/16 07:43:32;;;;;;;9.60;3.20;;;;;;;6.32;100.00;99980.34;5015338;28;20056;-80
2023/10/16 07:48:34;;;;;;;5.00;3.60;;;;;;;6.33;100.00;99961.38;5032206;28;20389;-80
2023/10/16 07:51:01;;;;;;;5.75;3.15;;;;;;;6.33;100.00;99958.78;5036048;28;20047;-80
2023/10/16 07:53:28;;;;;;;7.20;3.28;;;;;;;6.25;100.00;99935.69;5035955;28;20021;-80
2023/10/16 07:55:55;;;;;;;8.20;3.17;;;;;;;6.23;100.00;99940.03;5035623;28;20100;-80
2023/10/16 07:58:23;;;;;;;6.47;3.88;;;;;;;6.16;100.00;99912.66;5035553;28;20053;-80
2023/10/16 08:00:59;;;;;;;6.40;3.38;;;;;;;6.44;100.00;99929.16;5035811;28;20069;-80
2023/10/16 08:03:26;;;;;;;9.75;3.20;;;;;;;6.66;100.00;99962.28;5035931;28;20026;-80
2023/10/16 08:05:52;;;;;;;9.52;3.33;;;;;;;6.65;100.00;99958.81;5035196;28;20489;-80
2023/10/16 08:08:25;;;;;;;7.72;2.92;;;;;;;6.52;100.00;99918.63;5035184;28;20029;-80
2023/10/16 08:10:52;;;;;;;8.20;4.32;;;;;;;6.56;100.00;99945.28;5027834;28;20068;-80
2023/10/16 08:13:18;;;;;;;7.45;2.97;;;;;;;6.59;100.00;99934.84;5035221;28;20033;-80
2023/10/16 08:15:51;;;;;;;7.57;3.22;;;;;;;6.97;100.00;99978.69;5035187;28;20108;-80
2023/10/16 08:18:25;;;;;;;6.65;2.92;;;;;;;6.80;100.00;99934.28;5035078;28;20113;-81
2023/10/16 08:21:00;;;;;;;5.70;2.75;;;;;;;6.92;100.00;99944.31;5034949;28;20037;-80
2023/10/16 08:23:33;;;;;;;6.60;3.35;;;;;;;6.96;100.00;99932.97;5035000;28;20056;-81
2023/10/16 08:26:00;;;;;;;6.72;3.42;;;;;;;7.03;100.00;99943.16;5016783;28;20025;-80
2023/10/16 08:28:35;;;;;;;9.55;4.22;;;;;;;7.33;100.00;99968.25;5034991;28;20392;-81
2023/10/16 08:31:22;;;;;;;6.80;3.45;;;;;;;7.21;100.00;99960.81;5034416;28;20472;-80
2023/10/16 08:33:46;;;;;;;12.00;3.50;;;;;;;7.25;100.00;99985.72;5023170;28;20456;-80
2023/10/16 08:36:12;;;;;;;7.95;2.75;;;;;;;6.86;100.00;99939.28;5016688;28;20025;-80
2023/10/16 08:38:40;;;;;;;6.25;3.00;;;;;;;7.19;100.00;99983.28;5034518;28;20022;-81
2023/10/16 08:41:14;;;;;;;7.35;2.83;;;;;;;7.24;100.00;99963.28;5034461;28;20030;-81
2023/10/16 08:43:53;;;;;;;7.00;3.33;;;;;;;7.47;100.00;99985.97;5034448;28;20213;-81
2023/10/16 08:46:24;;;;;;;5.25;3.33;;;;;;;7.69;100.00;99987.03;5024838;28;20057;-80
2023/10/16 08:48:52;;;;;;;5.03;3.03;;;;;;;7.56;100.00;99958.94;5028120;28;20058;-79
2023/10/16 08:51:18;;;;;;;12.98;3.95;;;;;;;7.59;100.00;99943.31;5024693;28;20389;-80
2023/10/16 08:53:44;;;;;;;10.18;3.53;;;;;;;7.82;100.00;99960.75;5034476;28;20029;-80
2023/10/16 08:56:12;;;;;;;5.72;3.22;;;;;;;8.09;100.00;99996.22;5007029;28;20045;-80
2023/10/16 08:58:44;;;;;;;8.50;3.85;;;;;;;7.96;100.00;99968.94;5023140;28;20105;-80
2023/10/16 09:01:12;;;;;;;7.10;3.85;;;;;;;7.86;100.00;99958.00;5022854;28;20396;-81
2023/10/16 09:03:42;;;;;;;7.28;4.07;;;;;;;8.17;100.00;99989.03;5010619;28;20443;-81
2023/10/16 09:06:07;;;;;;;6.22;3.20;;;;;;;8.07;100.00;99969.47;5018626;28;20106;-81
2023/10/16 09:08:34;;;;;;;8.98;3.60;;;;;;;8.00;100.00;99952.41;4996936;28;20112;-81
2023/10/16 09:11:06;;;;;;;6.43;2.95;;;;;;;8.19;99.93;99976.88;5013960;28;20082;-81
2023/10/16 09:13:35;;;;;;;5.20;3.17;;;;;;;8.27;98.68;99997.41;5014139;28;20478;-81
2023/10/16 09:16:11;;;;;;;3.90;2.85;;;;;;;8.01;99.33;99961.91;5014106;28;20061;-80
2023/10/16 09:18:37;;;;;;;7.13;3.70;;;;;;;8.27;99.50;99984.44;5014161;28;20026;-81
2023/10/16 09:21:13;;;;;;;9.20;3.85;;;;;;;8.20;100.00;99963.00;5013878;28;20527;-81
2023/10/16 09:23:39;;;;;;;11.15;5.10;;;;;;;8.31;99.68;99949.69;5013999;28;20362;-80
2023/10/16 09:26:06;;;;;;;8.60;4.03;;;;;;;8.59;100.00;99990.34;5013630;28;20030;-80
2023/10/16 09:28:33;;;;;;;4.78;2.95;;;;;;;8.54;99.83;99950.72;5014205;28;20022;-81
2023/10/16 09:31:01;;;;;;;7.40;3.38;;;;;;;8.72;98.12;99989.03;5013827;28;20057;-81
2023/10/16 09:33:27;;;;;;;10.05;3.60;;;;;;;8.58;98.17;99950.53;5013960;28;20033;-81
2023/10/16 09:36:00;;;;;;;6.85;3.30;;;;;;;8.70;97.20;99970.91;5013631;28;20030;-81
2023/10/16 09:38:32;;;;;;;8.05;3.88;;;;;;;8.53;95.92;99931.69;5013554;28;20164;-81
2023/10/16 09:43:56;;;;;;;7.70;3.00;;;;;;;8.81;95.45;99980.94;5013939;28;20033;-81
2023/10/16 09:49:13;;;;;;;9.68;4.60;;;;;;;8.86;94.23;99993.78;4933295;29;20046;-81
2023/10/16 09:51:45;;;;;;;9.90;4.45;;;;;;;8.84;93.88;99986.00;4933601;29;20039;-81
2023/10/16 09:54:13;;;;;;;13.02;5.25;;;;;;;8.89;94.53;99991.94;4933426;29;20044;-81
2023/10/16 09:56:44;;;;;;;12.77;8.13;;;;;;;8.77;94.02;99992.34;4933573;29;20569;-81
2023/10/16 09:59:22;;;;;;;12.20;4.18;;;;;;;8.56;94.66;99964.50;4933127;29;20062;-81
2023/10/16 10:01:51;;;;;;;7.15;3.33;;;;;;;8.48;95.49;99963.00;4933438;29;20035;-81
2023/10/16 10:04:19;;;;;;;5.43;3.00;;;;;;;8.64;95.58;99988.47;4933250;29;20164;-81
2023/10/16 10:06:54;;;;;;;10.02;3.22;;;;;;;8.70;95.66;99981.28;4933347;29;20040;-81
2023/10/16 10:09:22;;;;;;;8.88;3.90;;;;;;;8.71;95.23;99987.34;4933555;29;20035;-81
2023/10/16 10:12:13;;;;;;;12.18;4.78;;;;;;;8.76;94.41;99988.03;4924883;29;20027;-81
2023/10/16 10:14:50;;;;;;;7.30;2.90;;;;;;;8.72;94.46;99984.72;4933218;29;20083;-81
2023/10/16 10:17:20;;;;;;;5.90;3.03;;;;;;;8.62;94.84;99933.97;4932811;29;20483;-80
2023/10/16 10:19:55;;;;;;;8.80;3.20;;;;;;;9.11;95.37;99967.78;4933061;29;20225;-80
2023/10/16 10:22:32;;;;;;;6.50;2.60;;;;;;;9.38;94.23;99989.34;4933174;29;20031;-81
2023/10/16 10:25:35;;;;;;;6.20;2.17;;;;;;;9.41;91.89;99984.88;4932921;29;20024;-81
2023/10/16 10:28:15;;;;;;;12.02;3.45;;;;;;;9.56;90.89;99993.84;4907749;29;20475;-81
2023/10/16 10:30:45;;;;;;;6.05;2.47;;;;;;;9.28;90.78;99930.81;4913958;29;20028;-81
2023/10/16 10:33:34;;;;;;;9.38;2.65;;;;;;;9.43;91.26;99956.22;4913403;29;20043;-81
2023/10/16 10:36:33;;;;;;;7.75;2.17;;;;;;;9.65;90.81;99995.25;4913653;29;20028;-81
2023/10/16 10:39:20;;;;;;;7.57;3.83;;;;;;;9.75;89.52;99997.47;4897518;29;20051;-81
2023/10/16 10:41:58;;;;;;;5.25;2.45;;;;;;;9.90;89.06;99993.47;4913686;29;20381;-81
2023/10/16 10:44:52;;;;;;;5.38;3.17;;;;;;;9.92;89.50;99986.44;4913730;29;20039;-81
2023/10/16 10:47:30;;;;;;;8.45;2.88;;;;;;;9.72;89.63;99971.56;4913352;29;20441;-81
2023/10/16 10:50:12;;;;;;;4.60;2.00;;;;;;;9.84;90.09;99972.03;4913719;29;20511;-81
2023/10/16 10:52:37;;;;;;;9.25;3.00;;;;;;;9.94;89.24;99974.22;4913536;29;20040;-81
2023/10/16 10:55:14;;;;;;;7.97;3.05;;;;;;;9.71;88.39;99954.28;4913422;29;20039;-80
2023/10/16 10:57:40;;;;;;;5.68;1.90;;;;;;;9.61;88.83;99946.91;4913168;29;20044;-80
2023/10/16 11:05:22;;;;;;;8.73;2.35;;;;;;;9.70;89.73;99965.59;4994288;28;19925;-81
2023/10/16 11:10:41;;;;;;;8.98;2.88;;;;;;;9.90;89.10;99977.84;4970480;28;20454;-81
2023/10/16 11:13:08;;;;;;;11.85;3.70;;;;;;;9.92;89.01;99967.38;4970263;28;20049;-81
2023/10/16 11:15:44;;;;;;;6.35;3.15;;;;;;;9.65;90.24;99917.25;4970484;28;20045;-80
2023/10/16 11:18:11;;;;;;;9.55;3.78;;;;;;;9.76;89.93;99935.88;4970152;28;20038;-81
2023/10/16 11:20:36;;;;;;;7.70;3.28;;;;;;;9.83;89.82;99941.72;4954192;28;20061;-81
2023/10/16 11:23:16;;;;;;;5.40;2.25;;;;;;;9.76;89.49;99917.69;4970336;28;20498;-81
2023/10/16 11:25:46;;;;;;;10.73;3.53;;;;;;;10.09;89.60;99964.94;4970382;28;20052;-81
2023/10/16 11:28:32;;;;;;;4.70;2.53;;;;;;;10.17;89.06;99962.06;4969811;28;20064;-80
2023/10/16 11:30:59;;;;;;;12.15;3.05;;;;;;;9.82;88.68;99909.66;4970445;28;20489;-81
2023/10/16 11:33:43;;;;;;;7.20;2.40;;;;;;;10.09;88.62;99944.13;4970351;28;20121;-81
2023/10/16 11:36:09;;;;;;;4.10;2.13;;;;;;;9.88;88.57;99924.16;4970108;28;20035;-81
2023/10/16 11:38:35;;;;;;;3.75;2.10;;;;;;;9.99;88.81;99919.41;4970105;28;20053;-81
2023/10/16 11:41:16;;;;;;;6.97;2.90;;;;;;;10.17;87.70;99936.03;4970005;28;20031;-81
2023/10/16 11:43:47;;;;;;;7.00;2.50;;;;;;;10.25;86.78;99962.63;4970311;28;20045;-81
2023/10/16 11:49:22;;;;;;;3.00;1.85;;;;;;;10.15;86.16;99950.84;4969897;28;20038;-80
2023/10/16 11:51:49;;;;;;;4.03;2.42;;;;;;;10.06;86.40;99928.63;4970077;28;20039;-80
2023/10/16 11:54:20;;;;;;;8.35;2.40;;;;;;;10.07;86.84;99926.88;4970026;28;20035;-80
2023/10/16 11:56:47;;;;;;;5.57;2.78;;;;;;;9.83;87.54;99931.31;4970222;28;20035;-80
2023/10/16 11:59:14;;;;;;;5.05;2.22;;;;;;;9.64;89.09;99915.56;4970172;28;20038;-80
2023/10/16 12:01:40;;;;;;;4.88;2.05;;;;;;;9.80;90.31;99941.81;4970781;28;20114;-80
2023/10/16 12:04:06;;;;;;;5.90;2.22;;;;;;;9.79;90.21;99948.78;4970167;28;20118;-80
2023/10/16 12:06:31;;;;;;;5.43;1.80;;;;;;;9.67;91.47;99942.28;4970582;28;20027;-80
2023/10/16 12:08:59;;;;;;;9.45;3.05;;;;;;;9.69;93.13;99952.63;4954269;28;20074;-80
2023/10/16 12:11:24;;;;;;;6.07;2.78;;;;;;;9.73;94.53;99934.28;4970262;28;20400;-80
2023/10/16 12:13:51;;;;;;;18.13;9.60;;;;;;;9.79;95.49;99938.38;4951018;29;20039;-80
2023/10/16 12:16:24;;;;;;;10.05;3.58;;;;;;;9.97;94.90;99942.00;4950853;29;20039;-80
2023/10/16 12:18:51;;;;;;;6.30;3.00;;;;;;;9.97;93.87;99916.84;4950983;29;20050;-80
2023/10/16 12:21:17;;;;;;;4.53;2.63;;;;;;;10.18;92.01;99946.34;4950988;29;20031;-81
2023/10/16 12:23:42;;;;;;;5.90;2.65;;;;;;;10.15;89.89;99911.78;4962136;28;20516;-81
2023/10/16 12:26:08;;;;;;;4.28;2.00;;;;;;;10.43;89.31;99914.16;4972939;28;20030;-81
2023/10/16 12:28:33;;;;;;;7.43;2.50;;;;;;;10.72;90.63;99946.78;4973404;28;20094;-81
2023/10/16 12:30:59;;;;;;;12.68;4.38;;;;;;;10.63;90.39;99948.03;4989705;28;20034;-81
2023/10/16 12:33:25;;;;;;;19.95;6.85;;;;;;;10.47;88.46;99967.81;4989317;28;20038;-81
2023/10/16 12:35:54;;;;;;;4.85;2.20;;;;;;;10.20;91.22;99954.97;4992014;28;20034;-81
2023/10/16 12:38:20;;;;;;;3.90;1.83;;;;;;;10.13;93.24;99971.72;4993135;28;20042;-81
2023/10/16 12:40:46;;;;;;;3.40;1.80;;;;;;;9.91;94.97;99963.09;4993417;28;20038;-81
2023/10/16 12:43:11;;;;;;;3.17;1.88;;;;;;;9.89;96.58;99964.88;4993179;28;20442;-80
2023/10/16 12:45:39;;;;;;;6.00;2.25;;;;;;;9.54;96.44;99955.81;5011350;28;20174;-81
2023/10/16 12:48:05;;;;;;;11.63;6.32;;;;;;;9.34;98.97;99934.00;5014174;28;20033;-81
2023/10/16 12:50:30;;;;;;;7.93;3.10;;;;;;;9.18;99.92;99938.06;5016407;28;20040;-81
2023/10/16 12:52:58;;;;;;;7.60;3.13;;;;;;;9.18;100.00;99953.66;5028798;28;20030;-82
2023/10/16 12:55:24;;;;;;;8.95;4.57;;;;;;;8.95;100.00;99925.91;5034723;28;20037;-81
2023/10/16 12:57:51;;;;;;;5.43;3.50;;;;;;;9.04;100.00;99948.97;5034882;28;20561;-82
2023/10/16 13:00:18;;;;;;;7.50;3.90;;;;;;;8.97;100.00;99953.53;5034482;28;20040;-82
2023/10/16 13:02:48;;;;;;;7.45;3.85;;;;;;;8.88;100.00;99948.66;5035252;28;20109;-81
2023/10/16 13:05:14;;;;;;;11.70;3.90;;;;;;;8.64;100.00;99933.94;5034691;28;20067;-81
2023/10/16 13:07:41;;;;;;;4.57;2.60;;;;;;;8.55;100.00;99929.88;5034774;28;20065;-80
2023/10/16 13:10:20;;;;;;;8.60;3.97;;;;;;;8.63;100.00;99946.03;5011924;28;20041;-81
2023/10/16 13:12:46;;;;;;;7.28;3.47;;;;;;;8.55;100.00;99944.59;5012378;28;20128;-81
2023/10/16 13:15:16;;;;;;;4.10;3.10;;;;;;;8.38;100.00;99920.06;5012020;28;20498;-80
2023/10/16 13:17:42;;;;;;;8.80;3.35;;;;;;;8.60;100.00;99964.34;5012203;28;20038;-82
2023/10/16 13:20:17;;;;;;;8.90;3.35;;;;;;;8.36;100.00;99939.16;5012180;28;20049;-81
2023/10/16 13:22:49;;;;;;;5.80;3.20;;;;;;;8.23;100.00;99925.75;4995925;28;20041;-80
2023/10/16 13:25:16;;;;;;;8.10;3.78;;;;;;;8.36;100.00;99958.16;4995497;28;20037;-82
2023/10/16 13:27:44;;;;;;;10.55;3.60;;;;;;;8.32;100.00;99961.75;5011860;28;20058;-81
2023/10/16 13:30:11;;;;;;;7.47;4.50;;;;;;;7.99;100.00;99914.41;5011825;28;20512;-82
2023/10/16 13:32:42;;;;;;;8.57;3.55;;;;;;;8.21;100.00;99961.25;4995517;28;20026;-81
2023/10/16 13:35:15;;;;;;;7.88;4.10;;;;;;;8.25;100.00;99961.09;5011820;28;20116;-82
2023/10/16 13:37:44;;;;;;;5.55;3.70;;;;;;;7.89;100.00;99913.84;5011723;28;20030;-82
2023/10/16 13:40:20;;;;;;;7.35;3.97;;;;;;;8.09;100.00;99967.69;5013909;28;20042;-82
2023/10/16 13:42:56;;;;;;;6.70;4.43;;;;;;;7.91;100.00;99935.38;5034277;28;20033;-82